Time;durP1;ratioP1;P1;durP2;ratioP2;P2;SDS_P1;SDS_P2;PMS_P1;PMS_P2;Temp;Humidity;BMP_temperature;BMP_pressure;BME280_temperature;BME280_humidity;BME280_pressure;Samples;Min_cycle;Max_cycle;Signal;HPM_P1;HPM_P2
2021/01/12 00:01:57;;;;;;;33.40;24.70;;;5.00;99.90;;;;;;5014535;28;20468;-91
2021/01/12 00:04:23;;;;;;;34.73;22.77;;;5.00;99.90;;;;;;5013657;28;20458;-91
2021/01/12 00:06:53;;;;;;;34.90;24.07;;;5.00;99.90;;;;;;5013857;28;20487;-92
2021/01/12 00:09:23;;;;;;;34.47;24.77;;;5.10;99.90;;;;;;5012799;28;20447;-92
2021/01/12 00:11:52;;;;;;;30.00;22.33;;;5.10;99.90;;;;;;5013945;28;20807;-92
2021/01/12 00:14:34;;;;;;;31.80;22.80;;;5.00;99.90;;;;;;5013497;28;21020;-92
2021/01/12 00:17:03;;;;;;;32.80;22.80;;;5.10;99.90;;;;;;5014298;28;20475;-86
2021/01/12 00:19:31;;;;;;;28.23;22.60;;;5.10;99.90;;;;;;5013537;28;20528;-91
2021/01/12 00:21:59;;;;;;;37.63;22.60;;;5.10;99.90;;;;;;5013809;28;20460;-89
2021/01/12 00:24:28;;;;;;;36.37;23.93;;;5.10;99.90;;;;;;5012936;28;20452;-90
2021/01/12 00:26:58;;;;;;;36.27;22.93;;;5.10;99.90;;;;;;5013993;28;20508;-89
2021/01/12 00:29:26;;;;;;;33.67;22.83;;;5.20;99.90;;;;;;5013287;28;20961;-89
2021/01/12 00:31:52;;;;;;;36.40;25.30;;;5.20;99.90;;;;;;5014283;28;20625;-91
2021/01/12 00:34:21;;;;;;;31.20;22.97;;;5.20;99.90;;;;;;5017151;28;20481;-89
2021/01/12 00:36:50;;;;;;;39.53;24.70;;;5.20;99.90;;;;;;5024066;28;20487;-93
2021/01/12 00:39:17;;;;;;;35.83;23.50;;;5.10;99.90;;;;;;5029763;28;20931;-91
2021/01/12 00:41:48;;;;;;;36.20;24.37;;;5.20;99.90;;;;;;5031318;28;20551;-89
2021/01/12 00:44:16;;;;;;;32.17;24.43;;;5.20;99.90;;;;;;5034416;28;20461;-89
2021/01/12 00:46:45;;;;;;;32.60;22.57;;;5.10;99.90;;;;;;5020356;28;20906;-92
2021/01/12 00:49:16;;;;;;;27.80;22.73;;;5.20;99.90;;;;;;5019341;28;20563;-92
2021/01/12 00:51:53;;;;;;;35.43;22.30;;;5.20;99.90;;;;;;5017991;28;20486;-92
2021/01/12 00:54:23;;;;;;;33.53;23.57;;;5.20;99.90;;;;;;5018573;28;20940;-93
2021/01/12 00:56:50;;;;;;;28.33;20.50;;;5.30;99.90;;;;;;5037692;28;20469;-91
2021/01/12 00:59:18;;;;;;;27.07;20.87;;;5.30;99.90;;;;;;5025361;28;20858;-91
2021/01/12 01:01:46;;;;;;;25.30;20.60;;;5.30;99.90;;;;;;5018944;28;20788;-90
2021/01/12 01:04:14;;;;;;;28.83;19.30;;;5.30;99.90;;;;;;5034068;28;20604;-93
2021/01/12 01:06:41;;;;;;;29.03;21.93;;;5.30;99.90;;;;;;5025273;28;20555;-90
2021/01/12 01:09:12;;;;;;;29.50;20.23;;;5.40;99.90;;;;;;5032537;28;20539;-85
2021/01/12 01:11:47;;;;;;;27.83;21.37;;;5.30;99.90;;;;;;5036357;28;20565;-84
2021/01/12 01:14:15;;;;;;;27.07;20.20;;;5.30;99.90;;;;;;5032273;28;20464;-83
2021/01/12 01:16:44;;;;;;;27.23;20.30;;;5.40;99.90;;;;;;5024609;28;20463;-84
2021/01/12 01:19:13;;;;;;;31.93;19.67;;;5.30;99.90;;;;;;5028010;28;20544;-84
2021/01/12 01:21:39;;;;;;;32.47;19.67;;;5.40;99.90;;;;;;5027680;28;20456;-84
2021/01/12 01:24:08;;;;;;;22.90;18.33;;;5.40;99.90;;;;;;5030727;28;20556;-84
2021/01/12 01:26:34;;;;;;;26.07;19.33;;;5.40;99.90;;;;;;5027630;28;20488;-87
2021/01/12 01:29:04;;;;;;;19.77;17.63;;;5.40;99.90;;;;;;5035961;28;20757;-85
2021/01/12 01:31:45;;;;;;;23.93;18.67;;;5.40;99.90;;;;;;5027823;28;20483;-84
2021/01/12 01:34:11;;;;;;;29.93;19.83;;;5.40;99.90;;;;;;5022288;28;20445;-85
2021/01/12 01:36:38;;;;;;;25.87;19.03;;;5.40;99.90;;;;;;5018201;28;20570;-85
2021/01/12 01:39:05;;;;;;;25.87;18.40;;;5.50;99.90;;;;;;5021899;28;20444;-83
2021/01/12 01:41:35;;;;;;;21.13;16.90;;;5.40;99.90;;;;;;5025936;28;20487;-85
2021/01/12 01:44:05;;;;;;;24.40;18.37;;;5.40;99.90;;;;;;5027173;28;20491;-84
2021/01/12 01:46:31;;;;;;;23.70;18.47;;;5.50;99.90;;;;;;5033559;28;20487;-84
2021/01/12 01:48:58;;;;;;;23.77;17.37;;;5.50;99.90;;;;;;5024178;28;20536;-83
2021/01/12 01:51:33;;;;;;;23.13;17.50;;;5.50;99.90;;;;;;5024844;28;21003;-83
2021/01/12 01:54:06;;;;;;;22.07;17.17;;;5.50;99.90;;;;;;5025402;28;20453;-83
2021/01/12 01:56:36;;;;;;;20.30;16.93;;;5.50;99.90;;;;;;5014052;28;20465;-82
2021/01/12 01:59:03;;;;;;;22.93;15.97;;;5.50;99.90;;;;;;5011304;28;20473;-83
2021/01/12 02:01:29;;;;;;;18.97;14.53;;;5.50;99.90;;;;;;5011651;28;20468;-82
2021/01/12 02:04:07;;;;;;;20.43;14.13;;;5.50;99.90;;;;;;5014353;28;20469;-82
2021/01/12 02:06:36;;;;;;;20.67;15.43;;;5.50;99.90;;;;;;5014585;28;20503;-82
2021/01/12 02:09:07;;;;;;;22.33;16.10;;;5.40;99.90;;;;;;5015176;28;20446;-82
2021/01/12 02:11:40;;;;;;;19.73;15.00;;;5.50;99.90;;;;;;5014641;28;20488;-83
2021/01/12 02:14:13;;;;;;;20.07;14.47;;;5.50;99.90;;;;;;5014754;28;20464;-82
2021/01/12 02:16:46;;;;;;;15.43;12.20;;;5.50;99.90;;;;;;5020296;28;20465;-82
2021/01/12 02:19:20;;;;;;;19.70;14.47;;;5.40;99.90;;;;;;5031931;28;20788;-82
2021/01/12 02:22:02;;;;;;;15.23;12.87;;;5.50;99.90;;;;;;5034833;28;20477;-83
2021/01/12 02:24:39;;;;;;;16.50;13.30;;;5.50;99.90;;;;;;5032172;28;20572;-82
2021/01/12 02:27:19;;;;;;;17.83;14.10;;;5.50;99.90;;;;;;5025267;28;20543;-83
2021/01/12 02:29:49;;;;;;;16.27;13.20;;;5.50;99.90;;;;;;5024288;28;20493;-81
2021/01/12 02:32:16;;;;;;;15.30;13.33;;;5.50;99.90;;;;;;5027541;28;20511;-83
2021/01/12 02:34:47;;;;;;;18.77;14.20;;;5.50;99.90;;;;;;5032130;28;20514;-83
2021/01/12 02:37:17;;;;;;;16.13;13.43;;;5.50;99.90;;;;;;5027246;28;20480;-83
2021/01/12 02:39:58;;;;;;;17.83;13.77;;;5.60;99.90;;;;;;5029816;28;20454;-83
2021/01/12 02:42:25;;;;;;;16.50;13.70;;;5.60;99.90;;;;;;5013869;28;20445;-82
2021/01/12 02:44:53;;;;;;;16.60;12.80;;;5.60;99.90;;;;;;5017102;28;21190;-82
2021/01/12 02:47:19;;;;;;;18.43;13.33;;;5.60;99.90;;;;;;5026370;28;20504;-82
2021/01/12 02:49:47;;;;;;;17.63;12.20;;;5.60;99.90;;;;;;5027843;28;20453;-82
2021/01/12 02:52:16;;;;;;;14.73;12.13;;;5.60;99.90;;;;;;5027175;28;20495;-82
2021/01/12 02:54:42;;;;;;;17.07;12.30;;;5.60;99.90;;;;;;5019504;28;20465;-83
2021/01/12 02:57:10;;;;;;;15.37;12.13;;;5.60;99.90;;;;;;5028003;28;20457;-83
2021/01/12 02:59:37;;;;;;;17.13;13.70;;;5.60;99.90;;;;;;5021311;28;20469;-84
2021/01/12 03:02:03;;;;;;;14.10;11.43;;;5.50;99.90;;;;;;5024092;28;20468;-82
2021/01/12 03:04:29;;;;;;;16.63;12.97;;;5.60;99.90;;;;;;5029200;28;20488;-83
2021/01/12 03:06:56;;;;;;;17.20;13.10;;;5.60;99.90;;;;;;5032650;28;20454;-83
2021/01/12 03:09:30;;;;;;;15.33;12.33;;;5.50;99.90;;;;;;5027547;28;20479;-83
2021/01/12 03:11:56;;;;;;;16.30;11.77;;;5.50;99.90;;;;;;5027610;28;20491;-83
2021/01/12 03:14:25;;;;;;;13.63;10.73;;;5.60;99.90;;;;;;5026875;28;20467;-83
2021/01/12 03:16:51;;;;;;;14.63;11.37;;;5.50;99.90;;;;;;5016813;28;20456;-83
2021/01/12 03:19:18;;;;;;;13.20;10.90;;;5.50;99.90;;;;;;5024813;28;20481;-82
2021/01/12 03:21:45;;;;;;;13.30;10.67;;;5.50;99.90;;;;;;5026523;28;20465;-83
2021/01/12 03:24:11;;;;;;;14.37;10.53;;;5.60;99.90;;;;;;5026339;28;20453;-83
2021/01/12 03:26:40;;;;;;;11.77;9.33;;;5.60;99.90;;;;;;5016863;28;20457;-83
2021/01/12 03:29:07;;;;;;;13.70;9.40;;;5.60;99.90;;;;;;5027462;28;20555;-83
2021/01/12 03:31:35;;;;;;;13.30;9.47;;;5.60;99.90;;;;;;5028825;28;20491;-83
2021/01/12 03:34:02;;;;;;;12.53;9.70;;;5.60;99.90;;;;;;5025510;28;20666;-83
2021/01/12 03:36:28;;;;;;;11.57;9.27;;;5.70;99.90;;;;;;5018287;28;20492;-84
2021/01/12 03:38:55;;;;;;;12.67;9.70;;;5.70;99.90;;;;;;5030044;28;20540;-85
2021/01/12 03:41:22;;;;;;;12.37;8.60;;;5.60;99.90;;;;;;5032187;28;20544;-83
2021/01/12 03:43:48;;;;;;;11.80;9.40;;;5.60;99.90;;;;;;5030017;28;20480;-84
2021/01/12 03:46:16;;;;;;;12.13;9.20;;;5.60;99.90;;;;;;5028017;28;20536;-83
2021/01/12 03:48:44;;;;;;;12.30;8.73;;;5.70;99.90;;;;;;5030038;28;20452;-84
2021/01/12 03:51:13;;;;;;;13.60;9.70;;;5.70;99.90;;;;;;5024231;28;20947;-83
2021/01/12 03:53:39;;;;;;;10.43;8.13;;;5.70;99.90;;;;;;5032816;28;20463;-84
2021/01/12 03:56:05;;;;;;;10.60;8.40;;;5.70;99.90;;;;;;5033026;28;20455;-84
2021/01/12 03:58:32;;;;;;;12.73;7.80;;;5.70;99.90;;;;;;5026965;28;20453;-84
2021/01/12 04:00:58;;;;;;;9.53;8.37;;;5.80;99.90;;;;;;5017139;28;20512;-83
2021/01/12 04:03:28;;;;;;;8.67;7.30;;;5.80;99.90;;;;;;5032359;28;20480;-84
2021/01/12 04:05:55;;;;;;;9.40;8.33;;;5.80;99.90;;;;;;5023861;28;20464;-85
2021/01/12 04:08:22;;;;;;;7.80;6.33;;;5.80;99.90;;;;;;5023094;28;20460;-84
2021/01/12 04:10:48;;;;;;;8.70;7.13;;;5.90;99.90;;;;;;5029567;28;20534;-84
2021/01/12 04:13:20;;;;;;;8.40;7.37;;;5.90;99.90;;;;;;5016603;28;20468;-84
2021/01/12 04:15:46;;;;;;;7.03;5.70;;;5.90;99.90;;;;;;5027255;28;20793;-84
2021/01/12 04:18:13;;;;;;;9.07;6.30;;;6.00;99.90;;;;;;5024849;28;20548;-83
2021/01/12 04:20:39;;;;;;;9.60;7.03;;;6.00;99.90;;;;;;5026629;28;20456;-83
2021/01/12 04:23:08;;;;;;;8.50;6.30;;;6.10;99.90;;;;;;5032247;28;20453;-83
2021/01/12 04:25:39;;;;;;;8.30;6.03;;;6.10;99.90;;;;;;5032499;28;20464;-84
2021/01/12 04:28:05;;;;;;;8.33;6.50;;;6.20;99.90;;;;;;5032817;28;20547;-82
2021/01/12 04:30:32;;;;;;;7.50;6.10;;;6.10;99.90;;;;;;5031405;28;20453;-83
2021/01/12 04:32:58;;;;;;;6.80;5.50;;;6.20;99.90;;;;;;5016105;28;20996;-82
2021/01/12 04:35:25;;;;;;;8.30;6.50;;;6.20;99.90;;;;;;5030764;28;21517;-83
2021/01/12 04:37:51;;;;;;;7.30;6.33;;;6.20;99.90;;;;;;5030922;28;20537;-83
2021/01/12 04:40:19;;;;;;;7.20;5.57;;;6.20;99.90;;;;;;5023881;28;20460;-83
2021/01/12 04:42:45;;;;;;;7.20;5.83;;;6.20;99.90;;;;;;5019718;28;20553;-83
2021/01/12 04:45:14;;;;;;;6.53;5.20;;;6.20;99.90;;;;;;5000209;28;20460;-83
2021/01/12 04:47:41;;;;;;;7.37;6.30;;;6.30;99.90;;;;;;5032582;28;20538;-82
2021/01/12 04:50:11;;;;;;;6.63;5.13;;;6.30;99.90;;;;;;5025126;28;20458;-82
2021/01/12 04:52:48;;;;;;;7.27;5.37;;;6.30;99.90;;;;;;5024661;28;20568;-82
2021/01/12 04:55:18;;;;;;;7.43;6.17;;;6.40;99.90;;;;;;5000154;28;20901;-82
2021/01/12 04:57:54;;;;;;;7.90;5.87;;;6.30;99.90;;;;;;5020601;28;20467;-82
2021/01/12 05:00:23;;;;;;;6.60;5.23;;;6.30;99.90;;;;;;5011004;28;20933;-82
2021/01/12 05:03:05;;;;;;;5.67;4.70;;;6.30;99.90;;;;;;5019770;28;20468;-82
2021/01/12 05:05:35;;;;;;;5.10;4.57;;;6.30;99.90;;;;;;5000198;28;20464;-81
2021/01/12 05:08:08;;;;;;;5.80;4.87;;;6.40;99.90;;;;;;5021422;28;20536;-82
2021/01/12 05:10:40;;;;;;;8.60;5.20;;;6.30;99.90;;;;;;5028985;28;20628;-82
2021/01/12 05:13:13;;;;;;;7.00;5.63;;;6.40;99.90;;;;;;5027371;28;20465;-81
2021/01/12 05:15:41;;;;;;;6.67;4.67;;;6.40;99.90;;;;;;5032308;28;20445;-81
2021/01/12 05:18:10;;;;;;;6.00;4.90;;;6.40;99.90;;;;;;5022118;28;20467;-81
2021/01/12 05:20:44;;;;;;;5.13;4.37;;;6.50;99.90;;;;;;5020851;28;20496;-81
2021/01/12 05:23:13;;;;;;;5.90;4.53;;;6.50;99.90;;;;;;5027674;28;20494;-82
2021/01/12 05:25:50;;;;;;;5.77;3.53;;;6.50;99.90;;;;;;5017440;28;20454;-82
2021/01/12 05:28:18;;;;;;;6.00;4.17;;;6.50;99.90;;;;;;5002760;28;20441;-83
2021/01/12 05:30:50;;;;;;;5.10;4.50;;;6.50;99.90;;;;;;5015687;28;20454;-82
2021/01/12 05:33:24;;;;;;;5.57;4.10;;;6.50;99.90;;;;;;5015554;28;20480;-81
2021/01/12 05:36:00;;;;;;;4.83;3.80;;;6.50;99.90;;;;;;5015388;28;20947;-81
2021/01/12 05:38:28;;;;;;;7.83;5.60;;;6.50;99.90;;;;;;5022338;28;20559;-81
2021/01/12 05:40:58;;;;;;;5.00;3.90;;;6.60;99.90;;;;;;5015845;28;20492;-81
2021/01/12 05:43:44;;;;;;;3.83;3.43;;;6.60;99.90;;;;;;5015303;28;20458;-82
2021/01/12 05:46:22;;;;;;;4.40;3.87;;;6.60;99.90;;;;;;5013164;28;20453;-82
2021/01/12 05:48:49;;;;;;;4.80;3.73;;;6.60;99.90;;;;;;5015106;28;20919;-82
2021/01/12 05:51:17;;;;;;;3.87;3.30;;;6.60;99.90;;;;;;5018548;28;20579;-82
2021/01/12 05:54:07;;;;;;;7.13;4.30;;;6.60;99.90;;;;;;4996040;28;20546;-82
2021/01/12 05:56:37;;;;;;;4.80;3.60;;;6.60;99.90;;;;;;5005192;28;20475;-82
2021/01/12 05:59:24;;;;;;;5.00;3.77;;;6.60;99.90;;;;;;5002427;28;20463;-82
2021/01/12 06:01:56;;;;;;;4.53;3.90;;;6.60;99.90;;;;;;4996193;28;20504;-83
2021/01/12 06:04:24;;;;;;;6.03;4.07;;;6.70;99.90;;;;;;5015081;28;20603;-82
2021/01/12 06:06:52;;;;;;;5.07;4.37;;;6.70;99.90;;;;;;5015383;28;20457;-82
2021/01/12 06:09:21;;;;;;;5.23;4.73;;;6.70;99.90;;;;;;5014622;28;20483;-82
2021/01/12 06:11:50;;;;;;;4.33;3.90;;;6.70;99.90;;;;;;5015292;28;20572;-83
2021/01/12 06:14:20;;;;;;;5.37;4.57;;;6.70;99.90;;;;;;5014761;28;20544;-82
2021/01/12 06:16:49;;;;;;;5.53;4.23;;;6.70;99.90;;;;;;5015417;28;20558;-83
2021/01/12 06:19:19;;;;;;;5.93;4.33;;;6.70;99.90;;;;;;5014526;28;20460;-82
2021/01/12 06:22:24;;;;;;;4.10;3.70;;;6.80;99.90;;;;;;5015685;28;20529;-83
2021/01/12 06:25:14;;;;;;;4.50;3.93;;;6.80;99.90;;;;;;5014714;28;20940;-83
2021/01/12 06:27:40;;;;;;;6.67;4.97;;;6.80;99.90;;;;;;5009973;28;20465;-82
2021/01/12 06:30:11;;;;;;;5.03;4.30;;;6.80;99.90;;;;;;5013951;28;20489;-82
2021/01/12 06:32:40;;;;;;;5.77;4.60;;;6.80;99.90;;;;;;5014493;28;20476;-82
2021/01/12 06:35:09;;;;;;;5.07;4.00;;;6.90;99.90;;;;;;5015241;28;20532;-82
2021/01/12 06:37:37;;;;;;;4.17;3.77;;;6.90;99.90;;;;;;5014104;28;20852;-82
2021/01/12 06:40:07;;;;;;;6.37;3.97;;;6.90;99.90;;;;;;5014975;28;20460;-82
2021/01/12 06:42:36;;;;;;;4.43;3.97;;;6.90;99.90;;;;;;5014327;28;20462;-81
2021/01/12 06:45:06;;;;;;;5.37;4.37;;;6.90;99.90;;;;;;5015144;28;20471;-81
2021/01/12 06:47:34;;;;;;;5.93;4.73;;;6.90;99.90;;;;;;5013744;28;20938;-83
2021/01/12 06:50:10;;;;;;;5.40;4.90;;;6.90;99.90;;;;;;5014724;28;20453;-82
2021/01/12 06:52:46;;;;;;;5.13;3.80;;;7.00;99.90;;;;;;5013797;28;20523;-82
2021/01/12 06:55:15;;;;;;;5.70;3.60;;;7.00;99.90;;;;;;5007321;28;20442;-83
2021/01/12 06:57:47;;;;;;;5.17;3.90;;;7.00;99.90;;;;;;5014308;28;20457;-84
2021/01/12 07:00:24;;;;;;;4.93;3.80;;;7.00;99.90;;;;;;5010179;28;20492;-82
2021/01/12 07:02:57;;;;;;;4.53;3.77;;;7.00;99.90;;;;;;5012038;28;20785;-82
2021/01/12 07:05:25;;;;;;;6.90;4.03;;;7.00;99.90;;;;;;5013725;28;20495;-83
2021/01/12 07:07:58;;;;;;;4.50;3.60;;;6.90;99.90;;;;;;5015185;28;20529;-83
2021/01/12 07:10:25;;;;;;;4.50;3.30;;;7.00;99.90;;;;;;5013536;28;20450;-83
2021/01/12 07:12:52;;;;;;;4.00;2.93;;;7.00;99.90;;;;;;5013753;28;20772;-83
2021/01/12 07:15:20;;;;;;;5.10;3.83;;;7.00;99.90;;;;;;5014031;28;20480;-85
2021/01/12 07:17:48;;;;;;;5.43;3.00;;;7.00;99.90;;;;;;5013870;28;20875;-83
2021/01/12 07:20:20;;;;;;;6.20;4.90;;;7.00;99.90;;;;;;5014605;28;20572;-83
2021/01/12 07:23:00;;;;;;;6.03;4.13;;;7.00;99.90;;;;;;5014437;28;20488;-83
2021/01/12 07:25:29;;;;;;;7.00;4.67;;;7.10;99.90;;;;;;5013142;28;20529;-82
2021/01/12 07:28:11;;;;;;;5.67;3.50;;;7.00;99.90;;;;;;5013623;28;20450;-82
2021/01/12 07:30:44;;;;;;;4.83;3.50;;;7.00;99.90;;;;;;5000562;28;20459;-86
2021/01/12 07:33:21;;;;;;;4.93;3.77;;;7.00;99.90;;;;;;4996246;28;21041;-82
2021/01/12 07:35:51;;;;;;;4.90;3.73;;;7.00;99.90;;;;;;5027196;28;20440;-81
2021/01/12 07:38:19;;;;;;;5.23;3.90;;;7.00;99.90;;;;;;5013858;28;20478;-83
2021/01/12 07:40:48;;;;;;;5.63;3.60;;;7.00;99.90;;;;;;5013164;28;20940;-82
2021/01/12 07:43:15;;;;;;;7.20;4.50;;;7.00;99.90;;;;;;5013322;28;20779;-83
2021/01/12 07:45:46;;;;;;;4.90;3.63;;;7.00;99.90;;;;;;5013366;28;21107;-83
2021/01/12 07:48:15;;;;;;;4.50;3.40;;;7.00;99.90;;;;;;5003340;28;20531;-82
2021/01/12 07:50:43;;;;;;;4.27;3.60;;;7.10;99.90;;;;;;5012412;28;20958;-83
2021/01/12 07:53:13;;;;;;;4.23;3.73;;;7.10;99.90;;;;;;5013176;28;20467;-82
2021/01/12 07:55:40;;;;;;;3.90;3.40;;;7.10;99.90;;;;;;5012704;28;20430;-82
2021/01/12 07:58:08;;;;;;;4.93;4.20;;;7.10;99.90;;;;;;5013920;28;20461;-82
2021/01/12 08:00:34;;;;;;;4.33;3.70;;;7.10;99.90;;;;;;5005423;28;20489;-82
2021/01/12 08:03:04;;;;;;;4.90;4.30;;;7.10;99.90;;;;;;5013416;28;20449;-82
2021/01/12 08:05:34;;;;;;;7.00;3.57;;;7.20;99.90;;;;;;5010020;28;20892;-83
2021/01/12 08:08:03;;;;;;;5.80;5.03;;;7.20;99.90;;;;;;4999634;28;20450;-83
2021/01/12 08:10:34;;;;;;;6.43;4.73;;;7.20;99.90;;;;;;5013395;28;20453;-80
2021/01/12 08:13:11;;;;;;;5.47;4.83;;;7.20;99.90;;;;;;5015252;28;20493;-86
2021/01/12 08:15:40;;;;;;;12.47;6.27;;;7.30;99.90;;;;;;5016764;28;20545;-86
2021/01/12 08:18:10;;;;;;;7.10;6.37;;;7.30;99.90;;;;;;5013971;28;20478;-86
2021/01/12 08:20:45;;;;;;;7.53;6.30;;;7.30;99.90;;;;;;5017702;28;20498;-85
2021/01/12 08:23:25;;;;;;;5.90;5.30;;;7.30;99.90;;;;;;5017188;28;20470;-84
2021/01/12 08:25:55;;;;;;;8.20;6.93;;;7.40;99.90;;;;;;5012707;28;20452;-86
2021/01/12 08:28:25;;;;;;;7.90;7.03;;;7.30;99.90;;;;;;5015182;28;20529;-88
2021/01/12 08:30:53;;;;;;;12.70;6.27;;;7.40;99.90;;;;;;5017751;28;20461;-84
2021/01/12 08:33:27;;;;;;;7.97;6.43;;;7.40;99.90;;;;;;5012376;28;20496;-86
2021/01/12 08:35:57;;;;;;;19.53;9.93;;;7.40;99.90;;;;;;5012953;28;20771;-84
2021/01/12 08:38:34;;;;;;;10.87;8.67;;;7.40;99.90;;;;;;5011680;28;20568;-85
2021/01/12 08:41:12;;;;;;;9.37;8.40;;;7.40;99.90;;;;;;5012873;28;20591;-83
2021/01/12 08:43:44;;;;;;;9.73;8.70;;;7.50;99.90;;;;;;5011900;28;20466;-84
2021/01/12 08:46:18;;;;;;;8.57;7.60;;;7.50;99.90;;;;;;4993326;28;20522;-83
2021/01/12 08:48:53;;;;;;;7.57;6.80;;;7.60;99.90;;;;;;5005640;28;20808;-83
2021/01/12 08:51:20;;;;;;;7.77;6.73;;;7.60;99.90;;;;;;5012797;28;20557;-87
2021/01/12 08:53:55;;;;;;;7.90;6.90;;;7.50;99.90;;;;;;5013698;28;20492;-83
2021/01/12 08:56:23;;;;;;;7.90;5.70;;;7.50;99.90;;;;;;5017383;28;20465;-84
2021/01/12 08:59:11;;;;;;;8.70;7.50;;;7.50;99.90;;;;;;5022372;28;20545;-85
2021/01/12 09:01:39;;;;;;;9.10;7.50;;;7.60;99.90;;;;;;5009502;28;21188;-84
2021/01/12 09:04:10;;;;;;;10.63;8.00;;;7.60;99.90;;;;;;5015656;28;20445;-83
2021/01/12 09:06:41;;;;;;;14.43;8.97;;;7.60;99.90;;;;;;5011775;28;20459;-84
2021/01/12 09:09:19;;;;;;;10.60;8.50;;;7.60;99.90;;;;;;4996700;28;20820;-85
2021/01/12 09:11:47;;;;;;;8.73;7.00;;;7.50;99.90;;;;;;4995746;28;21036;-82
2021/01/12 09:14:17;;;;;;;9.20;7.97;;;7.50;99.90;;;;;;5007753;28;20852;-83
2021/01/12 09:16:50;;;;;;;9.87;7.47;;;7.60;99.90;;;;;;5015764;28;20620;-82
2021/01/12 09:19:38;;;;;;;12.43;8.50;;;7.60;99.90;;;;;;5010237;28;20453;-83
2021/01/12 09:22:16;;;;;;;9.80;7.93;;;7.60;99.90;;;;;;5006095;28;21049;-83
2021/01/12 09:24:49;;;;;;;11.97;6.53;;;7.70;99.90;;;;;;5023635;28;20444;-83
2021/01/12 09:27:27;;;;;;;9.17;6.23;;;7.60;99.90;;;;;;5015764;28;20461;-83
2021/01/12 09:30:08;;;;;;;6.80;5.00;;;7.60;99.90;;;;;;5025290;28;20456;-82
2021/01/12 09:32:35;;;;;;;6.80;4.60;;;7.70;99.90;;;;;;5008879;28;20489;-83
2021/01/12 09:35:03;;;;;;;6.23;5.30;;;7.70;99.90;;;;;;5011903;28;20454;-83
2021/01/12 09:37:34;;;;;;;6.90;4.00;;;7.60;99.90;;;;;;4996102;28;20486;-84
2021/01/12 09:40:07;;;;;;;6.97;5.13;;;7.70;99.90;;;;;;5013020;28;20572;-84
2021/01/12 09:42:36;;;;;;;10.90;5.37;;;7.70;99.90;;;;;;5015627;28;20457;-83
2021/01/12 09:45:03;;;;;;;9.83;4.70;;;7.70;99.90;;;;;;5016681;28;20481;-84
2021/01/12 09:47:35;;;;;;;7.03;5.50;;;7.70;99.90;;;;;;5007063;28;20455;-84
2021/01/12 09:50:06;;;;;;;7.83;6.40;;;7.80;99.90;;;;;;5019448;28;20494;-84
2021/01/12 09:52:33;;;;;;;8.60;6.47;;;7.70;99.90;;;;;;5015711;28;20478;-84
2021/01/12 09:55:04;;;;;;;8.57;6.73;;;7.70;99.90;;;;;;5019717;28;20450;-85
2021/01/12 09:57:42;;;;;;;7.23;6.43;;;7.70;99.90;;;;;;5017592;28;20488;-84
2021/01/12 10:00:10;;;;;;;7.87;6.43;;;7.80;99.90;;;;;;5002054;28;20464;-84
2021/01/12 10:02:43;;;;;;;10.50;6.77;;;7.90;99.90;;;;;;5016219;28;20493;-84
2021/01/12 10:05:10;;;;;;;10.07;6.43;;;7.90;99.90;;;;;;5036431;28;20438;-84
2021/01/12 10:07:38;;;;;;;9.53;6.50;;;7.90;99.90;;;;;;5018741;28;20446;-85
2021/01/12 10:10:06;;;;;;;9.30;7.47;;;8.00;99.90;;;;;;5018251;28;21043;-86
2021/01/12 10:12:33;;;;;;;9.57;7.93;;;7.90;99.90;;;;;;5010729;28;20628;-86
2021/01/12 10:15:46;;;;;;;8.10;7.30;;;7.90;99.90;;;;;;5017653;28;20481;-86
2021/01/12 10:18:30;;;;;;;11.30;7.83;;;7.80;99.90;;;;;;4939273;29;20449;-85
2021/01/12 10:20:58;;;;;;;11.07;9.00;;;7.80;99.90;;;;;;5013367;28;20465;-85
2021/01/12 10:23:25;;;;;;;7.67;6.87;;;7.80;99.90;;;;;;5016782;28;20442;-86
2021/01/12 10:25:52;;;;;;;9.80;7.17;;;7.90;99.90;;;;;;5008995;28;20473;-84
2021/01/12 10:28:19;;;;;;;11.80;9.07;;;7.90;99.90;;;;;;5012872;28;20473;-85
2021/01/12 10:30:46;;;;;;;11.77;7.27;;;7.90;99.90;;;;;;5009085;28;20457;-84
2021/01/12 10:33:12;;;;;;;8.77;6.67;;;7.90;99.90;;;;;;5019370;28;20532;-86
2021/01/12 10:35:39;;;;;;;12.03;7.17;;;7.90;99.90;;;;;;5013487;28;20449;-85
2021/01/12 10:38:05;;;;;;;8.87;6.40;;;7.80;99.90;;;;;;5013547;28;20851;-85
2021/01/12 10:40:31;;;;;;;9.13;6.43;;;7.80;99.90;;;;;;5013177;28;20540;-85
2021/01/12 10:42:58;;;;;;;9.80;6.20;;;7.80;99.90;;;;;;5016051;28;20521;-86
2021/01/12 10:45:25;;;;;;;14.20;6.53;;;7.80;99.90;;;;;;5013878;28;20922;-88
2021/01/12 10:47:52;;;;;;;6.37;5.23;;;7.80;99.90;;;;;;5013287;28;20456;-87
2021/01/12 10:50:20;;;;;;;5.33;4.83;;;7.70;99.90;;;;;;5008367;28;20457;-85
2021/01/12 10:52:47;;;;;;;6.50;4.43;;;7.70;99.90;;;;;;5003223;28;20485;-85
2021/01/12 10:55:14;;;;;;;12.10;5.10;;;7.70;99.90;;;;;;5013771;28;20458;-85
2021/01/12 10:57:44;;;;;;;7.50;4.33;;;7.70;99.90;;;;;;5014323;28;20805;-85
2021/01/12 11:00:14;;;;;;;4.80;3.93;;;7.70;99.90;;;;;;5015610;28;20438;-85
2021/01/12 11:02:44;;;;;;;28.13;17.03;;;7.70;99.90;;;;;;5006551;28;20453;-84
2021/01/12 11:05:12;;;;;;;7.50;4.73;;;7.60;99.90;;;;;;5016232;28;20462;-86
2021/01/12 11:07:40;;;;;;;8.03;3.40;;;7.50;99.90;;;;;;5017823;28;20450;-85
2021/01/12 11:10:08;;;;;;;5.13;2.90;;;7.50;99.90;;;;;;5016438;28;20541;-85
2021/01/12 11:12:34;;;;;;;4.90;3.00;;;7.50;99.90;;;;;;5014490;28;20493;-84
2021/01/12 11:15:03;;;;;;;5.50;2.70;;;7.50;99.90;;;;;;5037700;28;20445;-84
2021/01/12 11:17:30;;;;;;;5.00;2.30;;;7.50;99.90;;;;;;5035052;28;20782;-86
2021/01/12 11:19:57;;;;;;;5.20;2.20;;;7.40;99.90;;;;;;5024581;28;20492;-86
2021/01/12 11:22:27;;;;;;;2.73;1.67;;;7.40;99.90;;;;;;5016875;28;20469;-85
2021/01/12 11:24:55;;;;;;;4.97;1.90;;;7.40;99.90;;;;;;5015011;28;20918;-85
2021/01/12 11:27:22;;;;;;;3.30;1.70;;;7.40;99.90;;;;;;5006082;28;20455;-89
2021/01/12 11:29:48;;;;;;;4.10;1.80;;;7.30;99.90;;;;;;4999452;28;20497;-89
2021/01/12 11:32:15;;;;;;;3.27;1.77;;;7.30;99.90;;;;;;4996935;28;20486;-89
2021/01/12 11:34:42;;;;;;;3.60;1.43;;;7.40;99.90;;;;;;5007485;28;20455;-88
2021/01/12 11:37:11;;;;;;;2.50;1.30;;;7.30;99.90;;;;;;5006384;28;20518;-88
2021/01/12 11:39:38;;;;;;;3.00;1.67;;;7.20;99.90;;;;;;5014317;28;20534;-87
2021/01/12 11:42:09;;;;;;;4.00;1.43;;;7.20;99.90;;;;;;5015602;28;20446;-88
2021/01/12 11:44:35;;;;;;;2.17;1.17;;;7.20;99.90;;;;;;5017848;28;20553;-88
2021/01/12 11:47:02;;;;;;;3.37;1.40;;;7.20;99.90;;;;;;4997287;28;20458;-88
2021/01/12 11:49:29;;;;;;;2.80;1.23;;;7.10;99.90;;;;;;4999213;28;20453;-88
2021/01/12 11:51:55;;;;;;;2.50;1.60;;;7.20;99.90;;;;;;5001045;28;20548;-87
2021/01/12 11:54:21;;;;;;;4.07;2.07;;;7.40;99.90;;;;;;4994313;28;20469;-86
2021/01/12 11:56:55;;;;;;;4.70;2.20;;;7.50;99.90;;;;;;4995419;28;20535;-86
2021/01/12 11:59:24;;;;;;;3.20;1.90;;;7.80;99.90;;;;;;4994810;28;20442;-86
2021/01/12 12:01:53;;;;;;;6.80;2.43;;;7.90;99.90;;;;;;4993999;28;20474;-86
2021/01/12 12:04:20;;;;;;;5.50;2.00;;;7.80;99.90;;;;;;4994486;28;20442;-86
2021/01/12 12:06:51;;;;;;;2.47;1.53;;;7.80;99.90;;;;;;4993804;28;20509;-85
2021/01/12 12:09:18;;;;;;;4.40;1.70;;;7.90;99.90;;;;;;4995701;28;20901;-86
2021/01/12 12:11:45;;;;;;;4.80;2.07;;;7.90;99.90;;;;;;4994370;28;20621;-86
2021/01/12 12:14:13;;;;;;;7.93;5.27;;;7.90;99.90;;;;;;5028986;28;20461;-86
2021/01/12 12:16:42;;;;;;;4.33;1.60;;;7.90;99.90;;;;;;5033156;28;20449;-85
2021/01/12 12:19:10;;;;;;;4.40;1.47;;;7.80;99.90;;;;;;5035056;28;20441;-85
2021/01/12 12:21:36;;;;;;;2.67;1.20;;;7.70;99.90;;;;;;5034769;28;20524;-85
2021/01/12 12:24:03;;;;;;;3.87;1.30;;;7.80;99.90;;;;;;5035851;28;20455;-85
2021/01/12 12:26:30;;;;;;;4.97;1.40;;;7.50;99.90;;;;;;5034543;28;20531;-84
2021/01/12 12:28:56;;;;;;;2.47;1.53;;;7.30;99.90;;;;;;5038444;28;20528;-86
2021/01/12 12:31:23;;;;;;;2.30;1.17;;;7.20;99.90;;;;;;5039198;28;20456;-86
2021/01/12 12:33:50;;;;;;;3.00;1.27;;;7.00;99.90;;;;;;5039893;28;20489;-86
2021/01/12 12:36:16;;;;;;;5.17;1.33;;;6.90;99.90;;;;;;5038203;28;20470;-86
2021/01/12 12:38:44;;;;;;;4.10;1.17;;;6.90;99.90;;;;;;5037120;28;20850;-85
2021/01/12 12:41:12;;;;;;;4.70;1.00;;;6.90;99.90;;;;;;5037551;28;20448;-86
2021/01/12 12:43:38;;;;;;;2.07;0.97;;;6.80;99.90;;;;;;5036981;28;20562;-85
2021/01/12 12:46:05;;;;;;;2.00;1.10;;;6.90;99.90;;;;;;5022021;28;20843;-86
2021/01/12 12:48:33;;;;;;;3.60;1.10;;;7.00;99.90;;;;;;5004706;28;20507;-86
2021/01/12 12:51:03;;;;;;;2.60;1.23;;;7.00;99.90;;;;;;5018478;28;20511;-85
2021/01/12 12:53:34;;;;;;;2.10;0.90;;;7.10;99.90;;;;;;5016580;28;20564;-88
2021/01/12 12:56:07;;;;;;;4.40;1.00;;;7.10;99.90;;;;;;5019324;28;20982;-85
2021/01/12 12:58:36;;;;;;;2.90;1.17;;;7.10;99.90;;;;;;5017630;28;20581;-85
2021/01/12 13:01:03;;;;;;;1.90;0.90;;;7.20;99.90;;;;;;5018466;28;20772;-85
2021/01/12 13:03:37;;;;;;;4.00;1.17;;;7.30;99.90;;;;;;5027145;28;20452;-87
2021/01/12 13:06:07;;;;;;;4.07;1.00;;;7.30;99.90;;;;;;5031754;28;20480;-85